createdAt,value
2022-09-15T00:01:44.945Z,18.00
2022-09-15T00:04:48.510Z,18.03
2022-09-15T00:07:51.283Z,18.00
2022-09-15T00:10:58.360Z,17.94
2022-09-15T00:14:02.503Z,17.96
2022-09-15T00:17:05.674Z,17.96
2022-09-15T00:20:08.932Z,17.96
2022-09-15T00:23:13.761Z,17.95
2022-09-15T00:26:19.138Z,17.96
2022-09-15T00:29:22.073Z,17.93
2022-09-15T00:32:25.197Z,17.93
2022-09-15T00:35:28.121Z,17.90
2022-09-15T00:38:31.368Z,17.89
2022-09-15T00:41:34.613Z,17.87
2022-09-15T00:44:37.060Z,17.85
2022-09-15T00:47:40.150Z,17.87
2022-09-15T00:50:47.604Z,17.88
2022-09-15T00:53:50.888Z,17.84
2022-09-15T00:56:55.597Z,17.79
2022-09-15T01:00:00.703Z,17.79
2022-09-15T01:03:03.930Z,17.79
2022-09-15T01:06:16.070Z,17.79
2022-09-15T01:09:46.669Z,17.77
2022-09-15T01:12:49.712Z,17.77
2022-09-15T01:16:13.868Z,17.76
2022-09-15T01:19:23.110Z,17.78
2022-09-15T01:22:28.412Z,17.80
2022-09-15T01:25:56.425Z,17.83
2022-09-15T01:29:17.510Z,17.84
2022-09-15T01:32:51.136Z,17.80
2022-09-15T01:36:01.703Z,17.84
2022-09-15T01:39:16.542Z,17.86
2022-09-15T01:42:20.154Z,17.83
2022-09-15T01:45:30.001Z,17.87
2022-09-15T01:48:34.788Z,17.86
2022-09-15T01:51:38.039Z,17.85
2022-09-15T01:54:49.082Z,17.90
2022-09-15T01:57:52.208Z,17.90
2022-09-15T02:01:07.143Z,17.89
2022-09-15T02:04:23.235Z,17.89
2022-09-15T02:07:38.111Z,17.90
2022-09-15T02:10:51.108Z,17.88
2022-09-15T02:14:14.220Z,17.85
2022-09-15T02:17:19.522Z,17.77
2022-09-15T02:20:34.291Z,17.83
2022-09-15T02:23:41.267Z,17.82
2022-09-15T02:26:44.458Z,17.85
2022-09-15T02:29:48.881Z,17.84
2022-09-15T02:33:01.168Z,17.84
2022-09-15T02:36:04.297Z,17.82
2022-09-15T02:39:10.232Z,17.83
2022-09-15T02:42:13.358Z,17.82
2022-09-15T02:45:15.913Z,17.84
2022-09-15T02:48:18.866Z,17.85
2022-09-15T02:51:21.855Z,17.82
2022-09-15T02:54:24.766Z,17.86
2022-09-15T02:57:27.239Z,17.84
2022-09-15T03:00:31.176Z,17.84
2022-09-15T03:03:34.583Z,17.77
2022-09-15T03:06:37.384Z,17.67
2022-09-15T03:09:39.907Z,17.59
2022-09-15T03:12:45.040Z,17.58
2022-09-15T03:15:47.758Z,17.63
2022-09-15T03:18:51.377Z,17.53
2022-09-15T03:21:54.118Z,17.60
2022-09-15T03:24:57.058Z,17.60
2022-09-15T03:27:59.659Z,17.59
2022-09-15T03:31:03.583Z,17.54
2022-09-15T03:34:06.507Z,17.52
2022-09-15T03:37:09.386Z,17.45
2022-09-15T03:40:14.533Z,17.34
2022-09-15T03:43:18.822Z,17.26
2022-09-15T03:46:21.384Z,17.23
2022-09-15T03:49:25.340Z,17.13
2022-09-15T03:52:31.422Z,17.05
2022-09-15T03:55:34.338Z,16.98
2022-09-15T03:58:37.578Z,16.99
2022-09-15T04:01:40.500Z,17.05
2022-09-15T04:04:43.512Z,16.95
2022-09-15T04:07:46.016Z,17.07
2022-09-15T04:10:48.944Z,17.02
2022-09-15T04:13:52.560Z,17.04
2022-09-15T04:16:55.446Z,17.07
2022-09-15T04:19:58.177Z,17.09
2022-09-15T04:23:01.253Z,17.12
2022-09-15T04:26:06.937Z,17.16
2022-09-15T04:29:15.126Z,17.17
2022-09-15T04:32:18.365Z,17.19
2022-09-15T04:35:22.010Z,17.25
2022-09-15T04:38:24.573Z,17.25
2022-09-15T04:41:28.226Z,17.20
2022-09-15T04:44:30.750Z,17.13
2022-09-15T04:47:33.497Z,17.15
2022-09-15T04:50:36.096Z,17.19
2022-09-15T04:53:39.625Z,17.17
2022-09-15T04:56:42.233Z,17.13
2022-09-15T04:59:44.924Z,17.22
2022-09-15T05:02:47.387Z,17.25
2022-09-15T05:05:50.205Z,17.30
2022-09-15T05:08:55.037Z,17.31
2022-09-15T05:11:57.895Z,17.33
2022-09-15T05:15:00.363Z,17.34
2022-09-15T05:18:03.263Z,17.33
2022-09-15T05:21:06.758Z,17.31
2022-09-15T05:24:09.800Z,17.31
2022-09-15T05:27:12.406Z,17.30
2022-09-15T05:30:36.774Z,17.25
2022-09-15T05:33:37.710Z,17.30
2022-09-15T05:36:40.553Z,17.38
2022-09-15T05:39:43.038Z,17.47
2022-09-15T05:42:46.459Z,17.56
2022-09-15T05:45:55.643Z,17.65
2022-09-15T05:48:58.745Z,17.80
2022-09-15T05:52:02.046Z,17.89
2022-09-15T05:55:05.122Z,18.01
2022-09-15T05:58:08.056Z,18.00
2022-09-15T06:01:17.195Z,18.15
2022-09-15T06:04:20.466Z,18.34
2022-09-15T06:07:23.696Z,18.47
2022-09-15T06:10:26.419Z,18.52
2022-09-15T06:13:29.019Z,18.67
2022-09-15T06:16:33.710Z,18.75
2022-09-15T06:19:36.661Z,18.88
2022-09-15T06:22:39.611Z,19.00
2022-09-15T06:25:42.186Z,19.10
2022-09-15T06:28:50.573Z,19.17
2022-09-15T06:31:53.115Z,19.25
2022-09-15T06:34:56.128Z,19.22
2022-09-15T06:37:58.906Z,19.16
2022-09-15T06:41:02.109Z,19.07
2022-09-15T06:44:04.732Z,19.05
2022-09-15T06:47:07.781Z,19.00
2022-09-15T06:50:10.436Z,19.00
2022-09-15T06:53:13.375Z,18.99
2022-09-15T06:56:17.966Z,19.14
2022-09-15T06:59:24.686Z,19.13
2022-09-15T07:02:27.369Z,19.22
2022-09-15T07:05:30.563Z,19.24
2022-09-15T07:08:33.729Z,19.18
2022-09-15T07:11:36.622Z,19.20
2022-09-15T07:14:39.208Z,19.19
2022-09-15T07:17:42.153Z,19.23
2022-09-15T07:20:46.129Z,19.29
2022-09-15T07:23:49.508Z,19.37
2022-09-15T07:26:52.160Z,19.36
2022-09-15T07:29:55.252Z,19.36
2022-09-15T07:32:57.742Z,19.37
2022-09-15T07:36:02.477Z,19.29
2022-09-15T07:39:05.555Z,19.20
2022-09-15T07:42:08.521Z,19.25
2022-09-15T07:45:11.791Z,19.37
2022-09-15T07:48:14.759Z,19.47
2022-09-15T07:51:18.037Z,19.55
2022-09-15T07:54:22.895Z,19.64
2022-09-15T07:57:27.285Z,19.69
2022-09-15T08:00:30.368Z,19.79
2022-09-15T08:03:33.583Z,19.83
2022-09-15T08:06:36.993Z,19.94
2022-09-15T08:09:40.416Z,20.17
2022-09-15T08:12:42.901Z,20.61
2022-09-15T08:15:46.376Z,22.20
2022-09-15T08:18:49.469Z,22.70
2022-09-15T08:21:52.262Z,22.72
2022-09-15T08:24:54.764Z,22.99
2022-09-15T08:27:59.497Z,23.85
2022-09-15T08:31:06.674Z,23.85
2022-09-15T08:34:11.606Z,23.72
2022-09-15T08:37:14.218Z,23.95
2022-09-15T08:40:22.124Z,23.54
2022-09-15T08:43:26.540Z,23.24
2022-09-15T08:46:37.708Z,23.29
2022-09-15T08:49:53.619Z,24.09
2022-09-15T08:53:20.325Z,24.49
2022-09-15T08:56:22.936Z,24.50
2022-09-15T08:59:30.951Z,25.08
2022-09-15T09:02:58.920Z,24.85
2022-09-15T09:06:21.181Z,23.17
2022-09-15T09:09:44.691Z,23.64
2022-09-15T09:12:54.164Z,24.29
2022-09-15T09:16:09.464Z,24.62
2022-09-15T09:19:28.027Z,24.38
2022-09-15T09:22:36.171Z,23.79
2022-09-15T09:25:40.744Z,23.49
2022-09-15T09:28:54.721Z,23.43
2022-09-15T09:31:58.096Z,22.71
2022-09-15T09:35:18.802Z,22.93
2022-09-15T09:38:26.266Z,22.88
2022-09-15T09:41:36.188Z,22.95
2022-09-15T09:44:40.368Z,22.95
2022-09-15T09:47:43.195Z,23.02
2022-09-15T09:50:47.941Z,22.68
2022-09-15T09:53:53.932Z,22.82
2022-09-15T09:57:11.515Z,22.52
2022-09-15T10:00:34.333Z,22.70
2022-09-15T10:03:38.850Z,22.73
2022-09-15T10:06:42.582Z,22.73
2022-09-15T10:09:53.653Z,22.72
2022-09-15T10:12:56.644Z,22.67
2022-09-15T10:16:01.221Z,22.65
2022-09-15T10:19:03.885Z,22.54
2022-09-15T10:22:06.693Z,22.35
2022-09-15T10:25:21.641Z,22.40
2022-09-15T10:28:26.442Z,22.27
2022-09-15T10:31:32.124Z,22.11
2022-09-15T10:34:36.334Z,22.17
2022-09-15T10:38:00.907Z,22.20
2022-09-15T10:41:23.386Z,22.17
2022-09-15T10:45:01.597Z,22.23
2022-09-15T10:48:24.844Z,22.45
2022-09-15T10:52:03.020Z,22.60
2022-09-15T10:55:48.944Z,22.67
2022-09-15T10:59:15.221Z,22.83
2022-09-15T11:03:03.776Z,23.16
2022-09-15T11:06:21.320Z,23.15
2022-09-15T11:09:48.606Z,23.02
2022-09-15T11:13:16.108Z,23.15
2022-09-15T11:16:52.233Z,23.21
2022-09-15T11:20:13.039Z,23.49
2022-09-15T11:23:37.806Z,23.90
2022-09-15T11:26:44.611Z,24.02
2022-09-15T11:29:47.452Z,24.07
2022-09-15T11:33:04.393Z,23.98
2022-09-15T11:36:14.512Z,24.16
2022-09-15T11:39:21.318Z,23.94
2022-09-15T11:42:26.416Z,23.64
2022-09-15T11:45:32.868Z,23.42
2022-09-15T11:48:42.223Z,23.13
2022-09-15T11:51:52.846Z,23.02
2022-09-15T11:55:31.684Z,23.10
2022-09-15T11:58:45.283Z,23.05
2022-09-15T12:01:48.628Z,23.08
2022-09-15T12:05:17.450Z,22.93
2022-09-15T12:08:34.484Z,22.86
2022-09-15T12:11:44.658Z,22.66
2022-09-15T12:14:48.884Z,22.51
2022-09-15T12:18:27.292Z,22.42
2022-09-15T12:21:44.608Z,22.31
2022-09-15T12:25:01.158Z,22.12
2022-09-15T12:28:22.747Z,21.98
2022-09-15T12:31:41.209Z,21.99
2022-09-15T12:34:56.212Z,21.88
2022-09-15T12:37:59.870Z,21.76
2022-09-15T12:41:03.078Z,21.72
2022-09-15T12:44:15.041Z,21.86
2022-09-15T12:47:22.110Z,21.67
2022-09-15T12:50:27.122Z,21.60
2022-09-15T12:53:31.903Z,21.57
2022-09-15T12:56:35.145Z,21.67
2022-09-15T12:59:37.750Z,21.68
2022-09-15T13:02:45.887Z,21.77
2022-09-15T13:05:48.345Z,21.84
2022-09-15T13:09:01.406Z,21.68
2022-09-15T13:12:04.440Z,21.82
2022-09-15T13:15:13.579Z,21.44
2022-09-15T13:18:17.251Z,21.38
2022-09-15T13:21:21.750Z,21.21
2022-09-15T13:24:46.893Z,21.08
2022-09-15T13:27:53.761Z,20.89
2022-09-15T13:30:58.996Z,20.89
2022-09-15T13:38:20.197Z,20.94
2022-09-15T13:41:32.841Z,21.17
2022-09-15T13:44:47.171Z,21.21
2022-09-15T13:48:22.979Z,21.30
2022-09-15T13:51:28.466Z,21.62
2022-09-15T13:54:31.361Z,21.61
2022-09-15T14:01:02.248Z,21.80
2022-09-15T14:04:27.816Z,21.74
2022-09-15T14:07:30.271Z,21.81
2022-09-15T14:10:46.005Z,21.66
2022-09-15T14:13:49.154Z,21.83
2022-09-15T14:16:52.640Z,21.78
2022-09-15T14:19:57.296Z,21.71
2022-09-15T14:23:00.465Z,21.69
2022-09-15T14:26:02.949Z,21.89
2022-09-15T14:29:06.635Z,21.89
2022-09-15T14:32:14.363Z,22.24
2022-09-15T14:35:20.002Z,22.30
2022-09-15T14:38:24.773Z,22.19
2022-09-15T14:41:31.961Z,22.27
2022-09-15T14:48:06.551Z,22.32
2022-09-15T14:51:15.843Z,22.39
2022-09-15T14:54:23.911Z,22.33
2022-09-15T14:57:30.991Z,22.23
2022-09-15T15:00:38.537Z,22.06
2022-09-15T15:03:49.560Z,21.98
2022-09-15T15:07:03.686Z,21.86
2022-09-15T15:10:36.045Z,21.77
2022-09-15T15:13:42.660Z,21.82
2022-09-15T15:16:58.377Z,21.87
2022-09-15T15:20:05.919Z,22.01
2022-09-15T15:23:23.937Z,22.19
2022-09-15T15:26:29.613Z,22.17
2022-09-15T15:29:47.012Z,22.13
2022-09-15T15:32:49.810Z,22.25
2022-09-15T15:36:07.557Z,22.12
2022-09-15T15:39:24.702Z,21.98
2022-09-15T15:42:28.855Z,21.87
2022-09-15T15:45:34.507Z,21.79
2022-09-15T15:48:38.343Z,21.85
2022-09-15T15:51:41.612Z,21.99
2022-09-15T15:54:43.994Z,22.15
2022-09-15T15:57:50.149Z,22.20
2022-09-15T16:00:54.790Z,22.17
2022-09-15T16:03:57.457Z,22.11
2022-09-15T16:07:00.411Z,21.97
2022-09-15T16:10:03.830Z,21.85
2022-09-15T16:13:06.448Z,21.64
2022-09-15T16:16:18.306Z,21.51
2022-09-15T16:19:20.844Z,21.43
2022-09-15T16:22:23.547Z,21.43
2022-09-15T16:25:35.241Z,21.38
2022-09-15T16:28:38.038Z,21.33
2022-09-15T16:31:40.613Z,21.23
2022-09-15T16:34:43.440Z,21.24
2022-09-15T16:37:45.867Z,21.13
2022-09-15T16:40:51.169Z,21.13
2022-09-15T16:43:55.816Z,21.05
2022-09-15T16:46:58.491Z,20.98
2022-09-15T16:50:01.088Z,20.92
2022-09-15T16:53:04.271Z,20.86
2022-09-15T16:56:09.120Z,20.81
2022-09-15T16:59:12.130Z,20.79
2022-09-15T17:02:14.940Z,20.73
2022-09-15T17:05:26.526Z,20.67
2022-09-15T17:08:31.260Z,20.53
2022-09-15T17:11:33.960Z,20.46
2022-09-15T17:14:36.439Z,20.34
2022-09-15T17:17:39.149Z,20.20
2022-09-15T17:20:45.971Z,20.08
2022-09-15T17:23:49.645Z,20.01
2022-09-15T17:26:52.037Z,19.91
2022-09-15T17:29:54.802Z,19.78
2022-09-15T17:33:10.273Z,19.70
2022-09-15T17:36:13.308Z,19.64
2022-09-15T17:39:15.718Z,19.55
2022-09-15T17:42:20.170Z,19.47
2022-09-15T17:45:34.626Z,19.36
2022-09-15T17:48:38.925Z,19.29
2022-09-15T17:51:41.333Z,19.20
2022-09-15T17:54:44.212Z,19.17
2022-09-15T17:57:47.531Z,19.25
2022-09-15T18:00:50.954Z,19.28
2022-09-15T18:03:53.646Z,19.24
2022-09-15T18:06:56.049Z,19.33
2022-09-15T18:09:58.767Z,19.33
2022-09-15T18:13:01.607Z,19.22
2022-09-15T18:16:06.462Z,19.15
2022-09-15T18:19:08.964Z,19.09
2022-09-15T18:22:13.171Z,18.97
2022-09-15T18:25:25.509Z,18.85
2022-09-15T18:28:28.233Z,18.74
2022-09-15T18:31:30.747Z,18.61
2022-09-15T18:34:33.560Z,18.58
2022-09-15T18:37:36.942Z,18.47
2022-09-15T18:40:45.434Z,18.37
2022-09-15T18:43:50.754Z,18.32
2022-09-15T18:46:53.408Z,18.34
2022-09-15T18:49:55.811Z,18.25
2022-09-15T18:52:58.446Z,18.14
2022-09-15T18:56:00.903Z,18.06
2022-09-15T18:59:03.740Z,18.04
2022-09-15T19:02:06.480Z,17.96
2022-09-15T19:05:15.324Z,17.96
2022-09-15T19:08:17.916Z,17.93
2022-09-15T19:11:20.781Z,17.83
2022-09-15T19:14:23.291Z,17.77
2022-09-15T19:17:25.981Z,17.74
2022-09-15T19:20:29.922Z,17.69
2022-09-15T19:23:32.637Z,17.67
2022-09-15T19:26:35.093Z,17.59
2022-09-15T19:29:38.661Z,17.54
2022-09-15T19:32:41.607Z,17.46
2022-09-15T19:35:44.385Z,17.38
2022-09-15T19:38:46.751Z,17.32
2022-09-15T19:41:49.666Z,17.26
2022-09-15T19:44:52.131Z,17.17
2022-09-15T19:47:54.867Z,17.17
2022-09-15T19:50:57.272Z,17.22
2022-09-15T19:54:00.243Z,17.21
2022-09-15T19:57:02.862Z,17.18
2022-09-15T20:00:06.700Z,17.18
2022-09-15T20:03:09.936Z,17.16
2022-09-15T20:06:12.296Z,17.17
2022-09-15T20:09:15.222Z,17.14
2022-09-15T20:12:17.809Z,17.17
2022-09-15T20:15:20.486Z,17.16
2022-09-15T20:18:23.455Z,17.18
2022-09-15T20:21:49.238Z,17.14
2022-09-15T20:24:52.974Z,17.09
2022-09-15T20:27:55.692Z,17.03
2022-09-15T20:31:22.591Z,16.96
2022-09-15T20:34:25.299Z,16.91
2022-09-15T20:37:27.729Z,16.90
2022-09-15T20:40:31.109Z,16.92
2022-09-15T20:43:36.840Z,16.93
2022-09-15T20:46:39.765Z,16.98
2022-09-15T20:49:42.200Z,16.98
2022-09-15T20:52:44.815Z,17.00
2022-09-15T20:55:50.648Z,16.99
2022-09-15T20:58:54.994Z,17.02
2022-09-15T21:01:57.507Z,17.06
2022-09-15T21:05:00.214Z,17.07
2022-09-15T21:08:02.631Z,17.10
2022-09-15T21:11:07.290Z,17.19
2022-09-15T21:14:15.528Z,17.24
2022-09-15T21:17:18.265Z,17.21
2022-09-15T21:20:23.725Z,17.11
2022-09-15T21:23:34.880Z,17.04
2022-09-15T21:26:58.280Z,16.99
2022-09-15T21:30:00.892Z,16.95
2022-09-15T21:33:03.281Z,16.92
2022-09-15T21:36:14.644Z,16.89
2022-09-15T21:39:17.183Z,16.87
2022-09-15T21:42:19.878Z,16.76
2022-09-15T21:45:22.555Z,16.69
2022-09-15T21:48:27.184Z,16.68
2022-09-15T21:51:30.968Z,16.63
2022-09-15T21:54:33.607Z,16.67
2022-09-15T21:57:36.257Z,16.58
2022-09-15T22:00:40.381Z,16.53
2022-09-15T22:03:43.276Z,16.47
2022-09-15T22:06:46.867Z,16.46
2022-09-15T22:09:49.830Z,16.44
2022-09-15T22:12:52.797Z,16.40
2022-09-15T22:16:02.854Z,16.33
2022-09-15T22:19:07.193Z,16.22
2022-09-15T22:22:09.902Z,16.19
2022-09-15T22:25:19.775Z,16.08
2022-09-15T22:28:24.358Z,16.02
2022-09-15T22:31:30.584Z,15.96
2022-09-15T22:34:33.257Z,15.85
2022-09-15T22:37:35.738Z,15.87
2022-09-15T22:40:38.486Z,15.84
2022-09-15T22:43:43.811Z,15.77
2022-09-15T22:46:46.792Z,15.75
2022-09-15T22:49:49.205Z,15.66
2022-09-15T22:52:52.321Z,15.59
2022-09-15T22:56:06.725Z,15.50
2022-09-15T22:59:09.781Z,15.35
2022-09-15T23:02:12.278Z,15.25
2022-09-15T23:05:14.988Z,15.17
2022-09-15T23:08:17.435Z,15.06
2022-09-15T23:11:20.817Z,15.01
2022-09-15T23:14:23.891Z,15.00
2022-09-15T23:17:27.449Z,14.86
2022-09-15T23:20:29.904Z,14.85
2022-09-15T23:23:32.735Z,14.83
2022-09-15T23:26:35.135Z,14.83
2022-09-15T23:29:37.823Z,14.83
2022-09-15T23:32:40.217Z,14.85
2022-09-15T23:35:42.868Z,14.93
2022-09-15T23:38:45.939Z,14.90
2022-09-15T23:41:48.632Z,14.87
2022-09-15T23:44:51.046Z,14.80
2022-09-15T23:47:53.692Z,14.78
2022-09-15T23:50:56.235Z,14.74
2022-09-15T23:53:58.885Z,14.63
2022-09-15T23:57:01.244Z,14.59
